Time;durP1;ratioP1;P1;durP2;ratioP2;P2;SDS_P1;SDS_P2;PMS_P1;PMS_P2;Temp;Humidity;BMP_temperature;BMP_pressure;BME280_temperature;BME280_humidity;BME280_pressure;Samples;Min_cycle;Max_cycle;Signal;HPM_P1;HPM_P2
2022/04/11 00:00:54;;;;;;;3.70;3.40;;;;;;;;;;5079504;28;20209;-77
2022/04/11 00:03:21;;;;;;;5.10;4.18;;;;;;;;;;5077783;28;20206;-77
2022/04/11 00:05:49;;;;;;;4.55;3.60;;;;;;;;;;5078583;28;20205;-76
2022/04/11 00:08:17;;;;;;;5.00;4.55;;;;;;;;;;5079990;28;20561;-77
2022/04/11 00:10:44;;;;;;;4.63;4.22;;;;;;;;;;5079384;28;20206;-76
2022/04/11 00:13:12;;;;;;;4.15;3.75;;;;;;;;;;5086595;28;20252;-76
2022/04/11 00:15:41;;;;;;;4.15;3.45;;;;;;;;;;5074417;28;20194;-78
2022/04/11 00:18:09;;;;;;;4.07;3.65;;;;;;;;;;5081958;28;20224;-78
2022/04/11 00:20:37;;;;;;;5.28;4.03;;;;;;;;;;5081208;28;20201;-77
2022/04/11 00:23:04;;;;;;;5.60;4.70;;;;;;;;;;5082381;28;20648;-77
2022/04/11 00:25:32;;;;;;;4.85;3.80;;;;;;;;;;5089657;28;20636;-77
2022/04/11 00:27:59;;;;;;;4.03;3.63;;;;;;;;;;5081526;28;20263;-77
2022/04/11 00:30:26;;;;;;;3.72;3.40;;;;;;;;;;5082498;28;20652;-77
2022/04/11 00:32:53;;;;;;;3.92;3.63;;;;;;;;;;5088472;28;20209;-78
2022/04/11 00:35:21;;;;;;;4.10;3.55;;;;;;;;;;5078379;28;20221;-77
2022/04/11 00:37:49;;;;;;;4.53;3.88;;;;;;;;;;5078726;28;20224;-77
2022/04/11 00:40:16;;;;;;;3.80;3.38;;;;;;;;;;5086159;28;20201;-77
2022/04/11 00:42:43;;;;;;;4.60;4.00;;;;;;;;;;5083541;28;20797;-77
2022/04/11 00:45:11;;;;;;;4.22;3.53;;;;;;;;;;5076104;28;20668;-79
2022/04/11 00:47:38;;;;;;;4.90;3.15;;;;;;;;;;5088621;28;20228;-79
2022/04/11 00:50:06;;;;;;;4.85;3.90;;;;;;;;;;5074142;28;20198;-78
2022/04/11 00:52:37;;;;;;;7.20;4.30;;;;;;;;;;5071222;28;20201;-77
2022/04/11 00:55:07;;;;;;;5.00;3.80;;;;;;;;;;5072139;28;20202;-77
2022/04/11 00:57:34;;;;;;;4.00;3.58;;;;;;;;;;5076014;28;20228;-77
2022/04/11 01:00:02;;;;;;;5.72;3.75;;;;;;;;;;5079961;28;20198;-74
2022/04/11 01:02:29;;;;;;;4.22;3.55;;;;;;;;;;5085872;28;20951;-76
2022/04/11 01:04:56;;;;;;;4.00;3.45;;;;;;;;;;5073738;28;20565;-75
2022/04/11 01:07:23;;;;;;;3.85;3.42;;;;;;;;;;5084621;28;20193;-75
2022/04/11 01:09:53;;;;;;;4.65;3.25;;;;;;;;;;5073948;28;20619;-76
2022/04/11 01:12:20;;;;;;;7.45;4.07;;;;;;;;;;5076461;28;21887;-77
2022/04/11 01:14:47;;;;;;;4.60;3.47;;;;;;;;;;5086563;28;20193;-76
2022/04/11 01:17:17;;;;;;;4.82;3.50;;;;;;;;;;5080452;28;20570;-77
2022/04/11 01:19:44;;;;;;;5.07;3.17;;;;;;;;;;5082546;28;20194;-77
2022/04/11 01:22:12;;;;;;;4.82;3.63;;;;;;;;;;5080178;28;20193;-76
2022/04/11 01:24:39;;;;;;;5.63;3.78;;;;;;;;;;5087180;28;20201;-76
2022/04/11 01:27:06;;;;;;;4.28;3.50;;;;;;;;;;5090537;28;20222;-77
2022/04/11 01:29:34;;;;;;;4.55;3.10;;;;;;;;;;5079394;28;20228;-77
2022/04/11 01:32:03;;;;;;;3.50;3.20;;;;;;;;;;5078200;28;20202;-77
2022/04/11 01:34:30;;;;;;;3.55;3.17;;;;;;;;;;5086329;28;20633;-77
2022/04/11 01:36:58;;;;;;;4.05;3.20;;;;;;;;;;5084919;28;20229;-76
2022/04/11 01:39:26;;;;;;;4.20;3.58;;;;;;;;;;5079262;28;20274;-77
2022/04/11 01:41:53;;;;;;;3.13;2.80;;;;;;;;;;5081927;28;20198;-76
2022/04/11 01:44:20;;;;;;;6.32;3.63;;;;;;;;;;5071024;28;20213;-78
2022/04/11 01:46:50;;;;;;;3.20;2.88;;;;;;;;;;5077434;28;20194;-76
2022/04/11 01:49:17;;;;;;;5.45;3.65;;;;;;;;;;5070294;28;20205;-78
2022/04/11 01:51:44;;;;;;;3.80;3.30;;;;;;;;;;5076242;28;20205;-76
2022/04/11 01:54:11;;;;;;;3.47;3.17;;;;;;;;;;5075226;28;20198;-76
2022/04/11 01:56:40;;;;;;;5.53;4.05;;;;;;;;;;5071164;28;20702;-76
2022/04/11 01:59:07;;;;;;;6.85;3.55;;;;;;;;;;5080968;28;20220;-76
2022/04/11 02:01:34;;;;;;;3.72;2.83;;;;;;;;;;5083627;28;20201;-75
2022/04/11 02:04:01;;;;;;;4.22;2.95;;;;;;;;;;5076274;28;20210;-76
2022/04/11 02:06:28;;;;;;;3.40;2.92;;;;;;;;;;5075593;28;20197;-76
2022/04/11 02:08:55;;;;;;;3.13;2.80;;;;;;;;;;5088809;28;20200;-81
2022/04/11 02:11:22;;;;;;;3.85;3.38;;;;;;;;;;5091448;28;20205;-81
2022/04/11 02:13:51;;;;;;;5.65;4.40;;;;;;;;;;5085712;28;20205;-82
2022/04/11 02:16:18;;;;;;;3.97;3.30;;;;;;;;;;5098316;28;20217;-83
2022/04/11 02:18:46;;;;;;;3.47;2.38;;;;;;;;;;5089803;28;20278;-80
2022/04/11 02:21:13;;;;;;;4.95;3.35;;;;;;;;;;5086125;28;20212;-80
2022/04/11 02:23:40;;;;;;;3.63;3.28;;;;;;;;;;5084076;28;20288;-79
2022/04/11 02:26:08;;;;;;;3.78;2.80;;;;;;;;;;5101905;28;20672;-80
2022/04/11 02:28:35;;;;;;;4.93;3.50;;;;;;;;;;5084718;28;20240;-79
2022/04/11 02:31:04;;;;;;;3.50;2.70;;;;;;;;;;5089834;28;20198;-81
2022/04/11 02:33:31;;;;;;;3.15;2.30;;;;;;;;;;5097375;28;20194;-83
2022/04/11 02:35:58;;;;;;;7.43;3.33;;;;;;;;;;5084152;28;20198;-81
2022/04/11 02:38:25;;;;;;;2.60;2.40;;;;;;;;;;5091170;28;20210;-81
2022/04/11 02:40:52;;;;;;;3.42;2.58;;;;;;;;;;5095363;28;20542;-82
2022/04/11 02:43:19;;;;;;;4.50;2.90;;;;;;;;;;5094283;28;20227;-81
2022/04/11 02:45:46;;;;;;;3.05;2.70;;;;;;;;;;5087774;28;20186;-81
2022/04/11 02:48:14;;;;;;;3.05;2.75;;;;;;;;;;5086744;28;20192;-82
2022/04/11 02:50:42;;;;;;;3.55;3.25;;;;;;;;;;5084847;28;20198;-75
2022/04/11 02:53:09;;;;;;;4.03;2.70;;;;;;;;;;5083625;28;20667;-76
2022/04/11 02:55:36;;;;;;;3.35;2.90;;;;;;;;;;5084337;28;20560;-76
2022/04/11 02:58:03;;;;;;;3.95;2.63;;;;;;;;;;5087331;28;20281;-77
2022/04/11 03:00:30;;;;;;;4.35;3.92;;;;;;;;;;5083583;28;20194;-77
2022/04/11 03:02:57;;;;;;;2.80;2.60;;;;;;;;;;5087087;28;20224;-76
2022/04/11 03:05:25;;;;;;;3.85;3.03;;;;;;;;;;5079825;28;20205;-77
2022/04/11 03:07:52;;;;;;;2.83;2.63;;;;;;;;;;5085814;28;20538;-76
2022/04/11 03:10:20;;;;;;;2.50;2.20;;;;;;;;;;5080962;28;20193;-76
2022/04/11 03:12:47;;;;;;;3.25;2.90;;;;;;;;;;5085637;28;20201;-77
2022/04/11 03:15:14;;;;;;;2.97;2.67;;;;;;;;;;5086515;28;20189;-75
2022/04/11 03:17:41;;;;;;;3.25;2.70;;;;;;;;;;5087249;28;20223;-76
2022/04/11 03:20:09;;;;;;;3.60;2.78;;;;;;;;;;5082161;28;20197;-78
2022/04/11 03:22:38;;;;;;;3.05;2.35;;;;;;;;;;5087352;28;20214;-74
2022/04/11 03:25:05;;;;;;;3.33;2.95;;;;;;;;;;5086969;28;20197;-76
2022/04/11 03:27:32;;;;;;;3.95;3.13;;;;;;;;;;5075650;28;20206;-77
2022/04/11 03:30:00;;;;;;;3.95;2.80;;;;;;;;;;5085710;28;20653;-75
2022/04/11 03:32:27;;;;;;;2.42;2.20;;;;;;;;;;5088502;28;20197;-77
2022/04/11 03:34:54;;;;;;;2.53;2.25;;;;;;;;;;5085284;28;20197;-77
2022/04/11 03:37:22;;;;;;;3.95;2.83;;;;;;;;;;5083452;28;20672;-77
2022/04/11 03:39:50;;;;;;;2.85;2.28;;;;;;;;;;5080513;28;20206;-77
2022/04/11 03:42:17;;;;;;;2.78;2.25;;;;;;;;;;5087058;28;20192;-75
2022/04/11 03:44:44;;;;;;;4.20;3.10;;;;;;;;;;5081179;28;20213;-77
2022/04/11 03:47:11;;;;;;;2.47;2.08;;;;;;;;;;5085811;28;20200;-76
2022/04/11 03:49:38;;;;;;;3.55;2.58;;;;;;;;;;5076278;28;20190;-76
2022/04/11 03:52:06;;;;;;;5.40;2.75;;;;;;;;;;5085812;28;20190;-75
2022/04/11 03:54:33;;;;;;;3.72;2.40;;;;;;;;;;5071353;28;20198;-77
2022/04/11 03:57:02;;;;;;;3.80;2.60;;;;;;;;;;5073567;28;20209;-76
2022/04/11 03:59:29;;;;;;;4.18;2.72;;;;;;;;;;5082558;28;20604;-77
2022/04/11 04:01:56;;;;;;;3.70;3.05;;;;;;;;;;5078049;28;20198;-76
2022/04/11 04:04:23;;;;;;;3.15;2.80;;;;;;;;;;5083480;28;20200;-77
2022/04/11 04:06:50;;;;;;;3.92;3.47;;;;;;;;;;5091261;28;20197;-76
2022/04/11 04:09:17;;;;;;;4.20;2.72;;;;;;;;;;5079010;28;20293;-76
2022/04/11 04:11:44;;;;;;;2.97;2.65;;;;;;;;;;5087084;28;20204;-77
2022/04/11 04:14:13;;;;;;;3.05;2.30;;;;;;;;;;5087391;28;20204;-77
2022/04/11 04:16:40;;;;;;;2.65;2.35;;;;;;;;;;5083530;28;20637;-76
2022/04/11 04:19:08;;;;;;;4.55;2.90;;;;;;;;;;5084930;28;20220;-75
2022/04/11 04:21:35;;;;;;;3.45;3.13;;;;;;;;;;5087998;28;20193;-77
2022/04/11 04:24:02;;;;;;;3.30;3.00;;;;;;;;;;5079193;28;20691;-77
2022/04/11 04:26:29;;;;;;;3.05;2.45;;;;;;;;;;5076707;28;20205;-76
2022/04/11 04:28:56;;;;;;;3.28;2.97;;;;;;;;;;5076189;28;20218;-76
2022/04/11 04:31:26;;;;;;;4.05;3.10;;;;;;;;;;5085008;28;20287;-75
2022/04/11 04:33:53;;;;;;;7.38;2.38;;;;;;;;;;5079676;28;20661;-75
2022/04/11 04:36:20;;;;;;;4.60;3.00;;;;;;;;;;5084505;28;20285;-75
2022/04/11 04:38:47;;;;;;;3.08;2.40;;;;;;;;;;5071294;28;20633;-75
2022/04/11 04:41:15;;;;;;;2.88;2.47;;;;;;;;;;5076535;28;20198;-75
2022/04/11 04:43:42;;;;;;;3.10;2.55;;;;;;;;;;5083720;28;20205;-77
2022/04/11 04:46:09;;;;;;;3.75;2.67;;;;;;;;;;5091509;28;20197;-76
2022/04/11 04:48:37;;;;;;;3.45;2.55;;;;;;;;;;5076104;28;20193;-75
2022/04/11 04:51:04;;;;;;;5.03;3.10;;;;;;;;;;5081476;28;20198;-77
2022/04/11 04:53:31;;;;;;;2.38;2.17;;;;;;;;;;5082399;28;20190;-76
2022/04/11 04:55:58;;;;;;;5.40;2.90;;;;;;;;;;5073932;28;20216;-77
2022/04/11 04:58:25;;;;;;;3.22;2.95;;;;;;;;;;5075538;28;20221;-75
2022/04/11 05:00:52;;;;;;;3.75;2.50;;;;;;;;;;5075650;28;20198;-77
2022/04/11 05:03:20;;;;;;;3.05;2.60;;;;;;;;;;5075304;28;20198;-75
2022/04/11 05:05:48;;;;;;;4.88;3.08;;;;;;;;;;5084704;28;20640;-77
2022/04/11 05:08:15;;;;;;;3.00;2.70;;;;;;;;;;5079615;28;20588;-75
2022/04/11 05:10:42;;;;;;;2.67;2.45;;;;;;;;;;5079165;28;20657;-75
2022/04/11 05:13:09;;;;;;;3.25;2.83;;;;;;;;;;5075746;28;20664;-75
2022/04/11 05:15:36;;;;;;;6.43;2.90;;;;;;;;;;5091525;28;20209;-75
2022/04/11 05:18:03;;;;;;;4.15;2.67;;;;;;;;;;5079146;28;20203;-75
2022/04/11 05:20:31;;;;;;;2.42;2.22;;;;;;;;;;5075942;28;20213;-75
2022/04/11 05:22:59;;;;;;;4.00;2.78;;;;;;;;;;5086657;28;20584;-76
2022/04/11 05:25:26;;;;;;;4.55;2.50;;;;;;;;;;5075016;28;20189;-75
2022/04/11 05:27:53;;;;;;;3.50;2.92;;;;;;;;;;5081672;28;20217;-75
2022/04/11 05:30:20;;;;;;;2.95;2.70;;;;;;;;;;5072989;28;20194;-75
2022/04/11 05:32:47;;;;;;;3.28;2.97;;;;;;;;;;5073300;28;20637;-76
2022/04/11 05:35:15;;;;;;;3.05;2.75;;;;;;;;;;5076449;28;20569;-75
2022/04/11 05:37:42;;;;;;;2.88;2.28;;;;;;;;;;5086603;28;20211;-76
2022/04/11 05:40:12;;;;;;;3.25;2.40;;;;;;;;;;5087434;28;20214;-74
2022/04/11 05:42:39;;;;;;;5.05;2.63;;;;;;;;;;5081098;28;20225;-77
2022/04/11 05:45:07;;;;;;;4.03;3.67;;;;;;;;;;5081436;28;20190;-75
2022/04/11 05:47:34;;;;;;;3.30;2.90;;;;;;;;;;5074715;28;20691;-75
2022/04/11 05:50:01;;;;;;;4.30;3.40;;;;;;;;;;5088373;28;20193;-75
2022/04/11 05:52:28;;;;;;;3.72;3.13;;;;;;;;;;5089757;28;20206;-75
2022/04/11 05:54:55;;;;;;;3.85;2.97;;;;;;;;;;5083417;28;20501;-75
2022/04/11 05:57:23;;;;;;;5.30;2.55;;;;;;;;;;5089102;28;20209;-75
2022/04/11 05:59:51;;;;;;;2.42;2.22;;;;;;;;;;5090799;28;20221;-75
2022/04/11 06:02:18;;;;;;;5.80;3.13;;;;;;;;;;5086212;28;20197;-74
2022/04/11 06:04:45;;;;;;;2.83;2.60;;;;;;;;;;5087086;28;20191;-75
2022/04/11 06:07:12;;;;;;;2.00;1.80;;;;;;;;;;5088254;28;20201;-76
2022/04/11 06:09:39;;;;;;;4.68;2.78;;;;;;;;;;5081090;28;20208;-75
2022/04/11 06:12:08;;;;;;;5.57;2.60;;;;;;;;;;5087305;28;20198;-75
2022/04/11 06:14:36;;;;;;;3.72;2.40;;;;;;;;;;5080148;28;20194;-75
2022/04/11 06:17:03;;;;;;;3.15;2.72;;;;;;;;;;5081120;28;20201;-75
2022/04/11 06:19:30;;;;;;;2.72;2.45;;;;;;;;;;5083449;28;20225;-76
2022/04/11 06:21:57;;;;;;;2.88;2.00;;;;;;;;;;5088723;28;20921;-75
2022/04/11 06:24:24;;;;;;;2.60;2.20;;;;;;;;;;5086400;28;20653;-76
2022/04/11 06:26:51;;;;;;;3.97;2.83;;;;;;;;;;5089308;28;20216;-75
2022/04/11 06:29:19;;;;;;;4.38;3.40;;;;;;;;;;5083529;28;20217;-74
2022/04/11 06:31:47;;;;;;;3.15;2.25;;;;;;;;;;5088685;28;20201;-75
2022/04/11 06:34:14;;;;;;;3.17;2.90;;;;;;;;;;5089429;28;20205;-74
2022/04/11 06:36:41;;;;;;;5.43;2.97;;;;;;;;;;5073874;28;20206;-76
2022/04/11 06:39:08;;;;;;;3.60;2.72;;;;;;;;;;5079517;28;20212;-76
2022/04/11 06:41:35;;;;;;;2.42;2.00;;;;;;;;;;5079496;28;20581;-75
2022/04/11 06:44:02;;;;;;;6.10;2.85;;;;;;;;;;5082648;28;20666;-76
2022/04/11 06:46:29;;;;;;;2.67;2.40;;;;;;;;;;5088216;28;20677;-75
2022/04/11 06:48:58;;;;;;;3.53;3.17;;;;;;;;;;5083251;28;20811;-76
2022/04/11 06:51:25;;;;;;;2.78;2.10;;;;;;;;;;5078621;28;20660;-75
2022/04/11 06:53:52;;;;;;;3.38;2.13;;;;;;;;;;5089976;28;20559;-76
2022/04/11 06:56:19;;;;;;;3.10;2.70;;;;;;;;;;5078271;28;20554;-77
2022/04/11 06:58:46;;;;;;;4.38;2.40;;;;;;;;;;5081205;28;20221;-78
2022/04/11 07:01:13;;;;;;;2.00;1.90;;;;;;;;;;5080920;28;20202;-79
2022/04/11 07:03:41;;;;;;;5.63;2.60;;;;;;;;;;5077803;28;20194;-79
2022/04/11 07:06:10;;;;;;;2.92;2.65;;;;;;;;;;5081165;28;20201;-79
2022/04/11 07:08:37;;;;;;;3.15;2.17;;;;;;;;;;5088610;28;20274;-79
2022/04/11 07:11:04;;;;;;;3.85;2.50;;;;;;;;;;5081181;28;20538;-79
2022/04/11 07:13:32;;;;;;;2.75;2.30;;;;;;;;;;5076028;28;20201;-79
2022/04/11 07:15:59;;;;;;;3.80;2.75;;;;;;;;;;5086721;28;20206;-79
2022/04/11 07:18:27;;;;;;;3.45;2.33;;;;;;;;;;5082341;28;20936;-79
2022/04/11 07:20:54;;;;;;;2.38;2.00;;;;;;;;;;5085089;28;20659;-79
2022/04/11 07:23:22;;;;;;;2.38;2.05;;;;;;;;;;5081822;28;20209;-79
2022/04/11 07:25:49;;;;;;;4.15;2.10;;;;;;;;;;5071783;28;20205;-77
2022/04/11 07:28:17;;;;;;;2.97;2.22;;;;;;;;;;5081021;28;20205;-78
2022/04/11 07:30:44;;;;;;;2.70;2.25;;;;;;;;;;5082397;28;20194;-78
2022/04/11 07:33:12;;;;;;;3.83;2.00;;;;;;;;;;5080742;28;20205;-78
2022/04/11 07:35:39;;;;;;;2.90;2.00;;;;;;;;;;5077421;28;20265;-78
2022/04/11 07:38:06;;;;;;;2.25;2.13;;;;;;;;;;5082470;28;20205;-77
2022/04/11 07:40:34;;;;;;;2.60;2.25;;;;;;;;;;5077101;28;20214;-78
2022/04/11 07:43:01;;;;;;;3.08;2.20;;;;;;;;;;5086655;28;20284;-78
2022/04/11 07:45:29;;;;;;;2.20;1.63;;;;;;;;;;5087282;28;20194;-76
2022/04/11 07:47:56;;;;;;;1.75;1.58;;;;;;;;;;5085546;28;20201;-76
2022/04/11 07:50:24;;;;;;;2.60;2.17;;;;;;;;;;5072419;28;20222;-78
2022/04/11 07:52:51;;;;;;;4.18;2.30;;;;;;;;;;5078014;28;20576;-78
2022/04/11 07:55:18;;;;;;;2.90;1.85;;;;;;;;;;5079233;28;20193;-78
2022/04/11 07:57:46;;;;;;;2.53;1.70;;;;;;;;;;5081172;28;20646;-78
2022/04/11 08:00:14;;;;;;;2.38;2.10;;;;;;;;;;5071755;28;20210;-78
2022/04/11 08:02:41;;;;;;;3.05;1.80;;;;;;;;;;5087933;28;20599;-77
2022/04/11 08:05:09;;;;;;;1.75;1.65;;;;;;;;;;5081502;28;20190;-77
2022/04/11 08:07:36;;;;;;;2.65;1.65;;;;;;;;;;5086789;28;20285;-77
2022/04/11 08:10:03;;;;;;;2.33;1.60;;;;;;;;;;5073929;28;20186;-77
2022/04/11 08:12:30;;;;;;;3.45;2.00;;;;;;;;;;5074691;28;20209;-78
2022/04/11 08:14:59;;;;;;;2.47;2.03;;;;;;;;;;5082609;28;20205;-76
2022/04/11 08:17:26;;;;;;;2.30;1.65;;;;;;;;;;5084801;28;20556;-78
2022/04/11 08:19:53;;;;;;;5.15;1.75;;;;;;;;;;5079290;28;20221;-76
2022/04/11 08:22:20;;;;;;;2.80;2.15;;;;;;;;;;5086707;28;20221;-73
2022/04/11 08:24:47;;;;;;;2.80;2.50;;;;;;;;;;5084142;28;20212;-74
2022/04/11 08:27:15;;;;;;;1.77;1.60;;;;;;;;;;5083008;28;20199;-75
2022/04/11 08:29:43;;;;;;;1.70;1.40;;;;;;;;;;5075209;28;20195;-78
2022/04/11 08:32:12;;;;;;;2.85;1.83;;;;;;;;;;5071419;28;20202;-76
2022/04/11 08:34:39;;;;;;;1.70;1.17;;;;;;;;;;5079698;28;20292;-75
2022/04/11 08:37:06;;;;;;;3.05;1.80;;;;;;;;;;5074500;28;20209;-75
2022/04/11 08:39:34;;;;;;;3.08;1.65;;;;;;;;;;5090280;28;20626;-76
2022/04/11 08:42:02;;;;;;;3.58;1.30;;;;;;;;;;5083178;28;20201;-75
2022/04/11 08:44:29;;;;;;;2.88;2.05;;;;;;;;;;5076201;28;20582;-76
2022/04/11 08:46:57;;;;;;;2.10;1.58;;;;;;;;;;5086838;28;20189;-76
2022/04/11 08:49:28;;;;;;;2.75;2.13;;;;;;;;;;5080026;28;20190;-76
2022/04/11 08:51:55;;;;;;;2.20;1.17;;;;;;;;;;5074523;28;20206;-76
2022/04/11 08:54:22;;;;;;;2.00;1.40;;;;;;;;;;5083379;28;20193;-75
2022/04/11 08:56:49;;;;;;;2.58;1.60;;;;;;;;;;5088537;28;20624;-75
2022/04/11 08:59:16;;;;;;;1.77;1.67;;;;;;;;;;5083947;28;20193;-77
2022/04/11 09:01:43;;;;;;;4.35;1.80;;;;;;;;;;5080492;28;20308;-76
2022/04/11 09:04:10;;;;;;;2.30;1.60;;;;;;;;;;5075626;28;20209;-78
2022/04/11 09:06:39;;;;;;;2.40;1.60;;;;;;;;;;5083753;28;20201;-75
2022/04/11 09:09:06;;;;;;;2.75;1.20;;;;;;;;;;5086180;28;20645;-75
2022/04/11 09:11:35;;;;;;;2.10;1.10;;;;;;;;;;5083518;28;20239;-75
2022/04/11 09:14:03;;;;;;;2.83;1.60;;;;;;;;;;5076305;28;20688;-75
2022/04/11 09:16:30;;;;;;;1.63;1.52;;;;;;;;;;5082667;28;20648;-76
2022/04/11 09:18:58;;;;;;;1.60;1.50;;;;;;;;;;5091621;28;20679;-75
2022/04/11 09:21:25;;;;;;;4.00;1.70;;;;;;;;;;5088552;28;20228;-76
2022/04/11 09:24:14;;;;;;;1.60;1.25;;;;;;;;;;5095202;28;20212;-75
2022/04/11 09:26:41;;;;;;;3.65;1.70;;;;;;;;;;5089843;28;20243;-78
2022/04/11 09:29:08;;;;;;;3.95;1.55;;;;;;;;;;5083984;28;20226;-76
2022/04/11 09:31:36;;;;;;;2.53;1.23;;;;;;;;;;5085605;28;20669;-75
2022/04/11 09:34:14;;;;;;;2.88;1.40;;;;;;;;;;5078943;28;20208;-76
2022/04/11 09:36:45;;;;;;;1.60;1.50;;;;;;;;;;5091104;28;20197;-79
2022/04/11 09:39:14;;;;;;;2.50;1.40;;;;;;;;;;5095132;28;20233;-74
2022/04/11 09:41:45;;;;;;;1.77;1.50;;;;;;;;;;5087217;28;20236;-78
2022/04/11 09:44:22;;;;;;;2.35;1.50;;;;;;;;;;5092928;28;20197;-76
2022/04/11 09:46:49;;;;;;;5.03;1.58;;;;;;;;;;5084723;28;20204;-76
2022/04/11 09:49:17;;;;;;;2.25;1.40;;;;;;;;;;5085299;28;20270;-76
2022/04/11 09:52:03;;;;;;;2.47;1.45;;;;;;;;;;5074740;28;20194;-76
2022/04/11 09:54:32;;;;;;;1.77;1.60;;;;;;;;;;5080849;28;20208;-76
2022/04/11 09:56:59;;;;;;;4.65;2.28;;;;;;;;;;5088621;28;20198;-78
2022/04/11 09:59:27;;;;;;;2.85;1.50;;;;;;;;;;5082891;28;20671;-76
2022/04/11 10:01:54;;;;;;;1.70;1.60;;;;;;;;;;5083054;28;20205;-76
2022/04/11 10:04:22;;;;;;;1.60;1.50;;;;;;;;;;5084889;28;20198;-76
2022/04/11 10:06:49;;;;;;;2.50;1.58;;;;;;;;;;5076515;28;20712;-76
2022/04/11 10:09:19;;;;;;;4.15;1.60;;;;;;;;;;5089881;28;20568;-76
2022/04/11 10:11:47;;;;;;;2.25;2.05;;;;;;;;;;5077051;28;20687;-77
2022/04/11 10:14:23;;;;;;;4.03;2.05;;;;;;;;;;5081448;28;20572;-77
2022/04/11 10:16:50;;;;;;;2.58;1.90;;;;;;;;;;5088638;28;20561;-76
2022/04/11 10:19:17;;;;;;;5.20;2.40;;;;;;;;;;5085934;28;20209;-78
2022/04/11 10:21:46;;;;;;;2.72;1.92;;;;;;;;;;5082550;28;20225;-76
2022/04/11 10:24:17;;;;;;;2.15;1.30;;;;;;;;;;5091480;28;20209;-75
2022/04/11 10:26:45;;;;;;;2.00;1.38;;;;;;;;;;5084996;28;20198;-77
2022/04/11 10:29:28;;;;;;;3.40;1.58;;;;;;;;;;5089608;28;20221;-78
2022/04/11 10:32:06;;;;;;;2.13;1.63;;;;;;;;;;5077382;28;20209;-76
2022/04/11 10:34:50;;;;;;;3.20;2.08;;;;;;;;;;5076030;28;20194;-77
2022/04/11 10:37:17;;;;;;;2.60;1.90;;;;;;;;;;5071675;28;20307;-80
2022/04/11 10:39:45;;;;;;;3.78;1.95;;;;;;;;;;5088248;28;20690;-77
2022/04/11 10:42:17;;;;;;;2.90;2.70;;;;;;;;;;5074306;28;20699;-79
2022/04/11 10:44:45;;;;;;;5.18;2.20;;;;;;;;;;5086023;28;20193;-78
2022/04/11 10:47:36;;;;;;;2.88;2.10;;;;;;;;;;5083316;28;20224;-79
2022/04/11 10:50:23;;;;;;;2.78;1.98;;;;;;;;;;5079983;28;20672;-78
2022/04/11 10:53:11;;;;;;;2.17;1.98;;;;;;;;;;5070393;28;20197;-78
2022/04/11 10:55:54;;;;;;;2.38;2.00;;;;;;;;;;5078708;28;20209;-78
2022/04/11 10:58:22;;;;;;;2.70;2.22;;;;;;;;;;5088171;28;20252;-79
2022/04/11 11:00:49;;;;;;;1.73;1.63;;;;;;;;;;5079184;28;20225;-79
2022/04/11 11:03:16;;;;;;;3.85;2.20;;;;;;;;;;5076465;28;20198;-79
2022/04/11 11:05:45;;;;;;;3.40;2.00;;;;;;;;;;5074156;28;20213;-79
2022/04/11 11:08:28;;;;;;;2.63;2.10;;;;;;;;;;5084666;28;20545;-80
2022/04/11 11:10:57;;;;;;;4.32;2.25;;;;;;;;;;5087909;28;20773;-80
2022/04/11 11:13:24;;;;;;;1.92;1.67;;;;;;;;;;5078576;28;20633;-79
2022/04/11 11:15:51;;;;;;;2.20;1.90;;;;;;;;;;5081663;28;20193;-79
2022/04/11 11:18:19;;;;;;;2.55;2.22;;;;;;;;;;5086502;28;20720;-81
2022/04/11 11:20:58;;;;;;;2.58;1.80;;;;;;;;;;5071853;28;20210;-80
2022/04/11 11:23:31;;;;;;;2.05;1.80;;;;;;;;;;5076071;28;20205;-79
2022/04/11 11:26:08;;;;;;;3.58;2.08;;;;;;;;;;5088776;28;20209;-79
2022/04/11 11:28:35;;;;;;;3.80;2.05;;;;;;;;;;5084984;28;20688;-80
2022/04/11 11:31:02;;;;;;;4.25;2.30;;;;;;;;;;5072328;28;20221;-79
2022/04/11 11:33:29;;;;;;;3.78;2.35;;;;;;;;;;5083880;28;20194;-79
2022/04/11 11:35:59;;;;;;;2.60;2.28;;;;;;;;;;5093262;28;20202;-80
2022/04/11 11:38:29;;;;;;;4.53;1.88;;;;;;;;;;5087766;28;20204;-79
2022/04/11 11:40:56;;;;;;;4.03;2.58;;;;;;;;;;5072109;28;20719;-79
2022/04/11 11:43:24;;;;;;;5.88;2.42;;;;;;;;;;5079069;28;20201;-80
2022/04/11 11:45:51;;;;;;;4.55;2.20;;;;;;;;;;5082690;28;20577;-80
2022/04/11 11:48:24;;;;;;;4.75;2.63;;;;;;;;;;5074231;28;20197;-78
2022/04/11 11:50:55;;;;;;;2.33;2.10;;;;;;;;;;5079201;28;20206;-79
2022/04/11 11:53:24;;;;;;;2.45;2.25;;;;;;;;;;5084201;28;20296;-78
2022/04/11 11:55:58;;;;;;;3.88;2.15;;;;;;;;;;5081447;28;20204;-79
2022/04/11 11:58:35;;;;;;;2.38;2.00;;;;;;;;;;5078206;28;20200;-80
2022/04/11 12:01:02;;;;;;;3.42;2.67;;;;;;;;;;5079774;28;20285;-80
2022/04/11 12:06:14;;;;;;;5.30;1.90;;;;;;;;;;5083697;28;20209;-79
2022/04/11 12:08:54;;;;;;;2.25;1.55;;;;;;;;;;5085753;28;20186;-79
2022/04/11 12:11:22;;;;;;;3.65;1.70;;;;;;;;;;5080463;28;20202;-80
2022/04/11 12:13:49;;;;;;;2.10;1.90;;;;;;;;;;5082966;28;20580;-80
2022/04/11 12:16:17;;;;;;;3.80;1.77;;;;;;;;;;5080391;28;20205;-79
2022/04/11 12:18:49;;;;;;;5.30;2.55;;;;;;;;;;5077820;28;20310;-78
2022/04/11 12:21:16;;;;;;;1.90;1.70;;;;;;;;;;5072304;28;20218;-78
2022/04/11 12:23:48;;;;;;;2.38;1.90;;;;;;;;;;5080314;28;20299;-79
2022/04/11 12:26:25;;;;;;;1.80;1.70;;;;;;;;;;5072705;28;20198;-79
2022/04/11 12:28:52;;;;;;;1.83;1.73;;;;;;;;;;5079411;28;20237;-79
2022/04/11 12:31:22;;;;;;;2.22;1.92;;;;;;;;;;5083029;28;20673;-79
2022/04/11 12:33:49;;;;;;;3.25;2.30;;;;;;;;;;5074314;28;20286;-78
2022/04/11 12:36:19;;;;;;;2.30;2.05;;;;;;;;;;5088552;28;20299;-79
2022/04/11 12:38:48;;;;;;;4.10;2.38;;;;;;;;;;5080551;28;20202;-79
2022/04/11 12:41:29;;;;;;;2.95;2.13;;;;;;;;;;5084820;28;20210;-78
2022/04/11 12:44:03;;;;;;;3.03;2.72;;;;;;;;;;5089371;28;20596;-77
2022/04/11 12:46:31;;;;;;;4.10;2.33;;;;;;;;;;5071188;28;20620;-78
2022/04/11 12:48:58;;;;;;;2.50;2.28;;;;;;;;;;5077110;28;20201;-78
2022/04/11 12:51:27;;;;;;;2.75;2.20;;;;;;;;;;5081105;28;20729;-78
2022/04/11 12:54:01;;;;;;;2.58;2.25;;;;;;;;;;5068271;28;20729;-79
2022/04/11 12:56:33;;;;;;;2.65;1.90;;;;;;;;;;5079544;28;20207;-78
2022/04/11 12:59:00;;;;;;;2.63;2.03;;;;;;;;;;5077668;28;20198;-79
2022/04/11 13:01:48;;;;;;;2.72;2.05;;;;;;;;;;5074473;28;20624;-77
2022/04/11 13:04:15;;;;;;;1.70;1.60;;;;;;;;;;5075463;28;20198;-78
2022/04/11 13:06:43;;;;;;;4.30;2.15;;;;;;;;;;5082346;28;20197;-78
2022/04/11 13:09:11;;;;;;;2.30;2.10;;;;;;;;;;5084538;28;20664;-77
2022/04/11 13:11:41;;;;;;;5.22;2.72;;;;;;;;;;5074619;28;20204;-77
2022/04/11 13:14:09;;;;;;;3.05;2.30;;;;;;;;;;5084275;28;20197;-77
2022/04/11 13:19:21;;;;;;;1.90;1.80;;;;;;;;;;5077990;28;20197;-77
2022/04/11 13:21:48;;;;;;;3.53;2.63;;;;;;;;;;5072240;28;20244;-78
2022/04/11 13:24:17;;;;;;;2.60;2.40;;;;;;;;;;5075320;28;20669;-77
2022/04/11 13:26:44;;;;;;;3.75;2.17;;;;;;;;;;5071971;28;20194;-78
2022/04/11 13:29:11;;;;;;;2.05;1.45;;;;;;;;;;5089103;28;20217;-77
2022/04/11 13:31:38;;;;;;;2.75;2.05;;;;;;;;;;5084751;28;20200;-78
2022/04/11 13:34:05;;;;;;;3.40;1.85;;;;;;;;;;5081822;28;20217;-77
2022/04/11 13:36:33;;;;;;;2.30;2.10;;;;;;;;;;5078071;28;20204;-78
2022/04/11 13:39:00;;;;;;;2.92;2.05;;;;;;;;;;5086831;28;20198;-78
2022/04/11 13:41:29;;;;;;;2.42;2.20;;;;;;;;;;5083394;28;20233;-79
2022/04/11 13:43:56;;;;;;;3.08;1.80;;;;;;;;;;5071576;28;20210;-78
2022/04/11 13:46:23;;;;;;;3.28;2.40;;;;;;;;;;5085926;28;20204;-78
2022/04/11 13:48:50;;;;;;;2.90;2.00;;;;;;;;;;5084838;28;20198;-78
2022/04/11 13:51:18;;;;;;;2.67;2.10;;;;;;;;;;5073298;28;20235;-78
2022/04/11 13:53:45;;;;;;;5.80;2.35;;;;;;;;;;5077004;28;20193;-79
2022/04/11 13:56:12;;;;;;;3.58;2.30;;;;;;;;;;5078614;28;20678;-78
2022/04/11 13:58:40;;;;;;;2.50;1.90;;;;;;;;;;5084686;28;20193;-79
2022/04/11 14:01:07;;;;;;;2.72;1.98;;;;;;;;;;5082951;28;20213;-80
2022/04/11 14:03:35;;;;;;;2.47;2.28;;;;;;;;;;5081959;28;20661;-78
2022/04/11 14:06:02;;;;;;;6.20;2.13;;;;;;;;;;5079514;28;20556;-79
2022/04/11 14:08:30;;;;;;;2.97;1.95;;;;;;;;;;5073672;28;20201;-79
2022/04/11 14:10:57;;;;;;;2.72;2.47;;;;;;;;;;5085674;28;20212;-79
2022/04/11 14:13:24;;;;;;;3.63;2.55;;;;;;;;;;5082588;28;20202;-79
2022/04/11 14:15:52;;;;;;;2.88;2.53;;;;;;;;;;5085011;28;20189;-79
2022/04/11 14:18:19;;;;;;;1.70;1.50;;;;;;;;;;5091917;28;20576;-78
2022/04/11 14:20:47;;;;;;;4.93;3.83;;;;;;;;;;5073756;28;20237;-78
2022/04/11 14:23:14;;;;;;;4.00;2.50;;;;;;;;;;5087106;28;20209;-78
2022/04/11 14:25:41;;;;;;;2.58;1.83;;;;;;;;;;5076114;28;20206;-79
2022/04/11 14:28:08;;;;;;;2.65;2.45;;;;;;;;;;5084830;28;20710;-79
2022/04/11 14:30:35;;;;;;;3.08;2.20;;;;;;;;;;5072333;28;20289;-78
2022/04/11 14:33:04;;;;;;;3.60;2.40;;;;;;;;;;5088324;28;20193;-78
2022/04/11 14:35:31;;;;;;;2.40;2.05;;;;;;;;;;5081052;28;20210;-76
2022/04/11 14:37:58;;;;;;;2.90;2.60;;;;;;;;;;5078296;28;20204;-78
2022/04/11 14:40:25;;;;;;;3.92;2.40;;;;;;;;;;5069105;28;20198;-78
2022/04/11 14:42:52;;;;;;;2.50;2.30;;;;;;;;;;5073654;28;20220;-77
2022/04/11 14:45:19;;;;;;;2.78;2.15;;;;;;;;;;5081376;28;20202;-79
2022/04/11 14:47:47;;;;;;;5.70;2.90;;;;;;;;;;5089166;28;20228;-77
2022/04/11 14:50:15;;;;;;;2.17;1.95;;;;;;;;;;5076896;28;20285;-78
2022/04/11 14:52:42;;;;;;;3.78;2.38;;;;;;;;;;5078808;28;20198;-78
2022/04/11 14:55:10;;;;;;;2.80;2.30;;;;;;;;;;5069899;28;20209;-77